createdAt,value
2019-06-26T00:00:59.568Z,99.99
2019-06-26T00:01:59.570Z,99.99
2019-06-26T00:02:59.559Z,99.99
2019-06-26T00:03:59.596Z,99.99
2019-06-26T00:04:59.469Z,99.99
2019-06-26T00:05:59.400Z,99.99
2019-06-26T00:06:59.352Z,99.99
2019-06-26T00:07:59.348Z,99.99
2019-06-26T00:08:59.381Z,99.99
2019-06-26T00:09:59.300Z,99.99
2019-06-26T00:10:59.257Z,99.99
2019-06-26T00:11:59.217Z,99.99
2019-06-26T00:12:59.156Z,99.99
2019-06-26T00:13:59.120Z,99.99
2019-06-26T00:14:59.101Z,99.99
2019-06-26T00:15:59.056Z,99.99
2019-06-26T00:16:59.029Z,99.99
2019-06-26T00:17:58.980Z,99.99
2019-06-26T00:18:58.953Z,99.99
2019-06-26T00:19:58.920Z,99.99
2019-06-26T00:20:58.888Z,99.99
2019-06-26T00:21:58.855Z,99.99
2019-06-26T00:22:58.823Z,99.99
2019-06-26T00:23:58.791Z,99.99
2019-06-26T00:24:58.753Z,99.99
2019-06-26T00:25:58.726Z,99.99
2019-06-26T00:26:58.687Z,99.99
2019-06-26T00:27:58.655Z,99.99
2019-06-26T00:28:58.645Z,99.99
2019-06-26T00:29:58.669Z,99.99
2019-06-26T00:30:58.614Z,99.99
2019-06-26T00:31:58.540Z,99.99
2019-06-26T00:32:58.516Z,99.99
2019-06-26T00:33:58.464Z,99.99
2019-06-26T00:34:58.441Z,99.99
2019-06-26T00:35:58.397Z,99.99
2019-06-26T00:36:58.403Z,99.77
2019-06-26T00:37:58.368Z,99.99
2019-06-26T00:38:58.554Z,99.99
2019-06-26T00:39:58.303Z,99.99
2019-06-26T00:40:58.265Z,99.99
2019-06-26T00:41:58.206Z,99.99
2019-06-26T00:42:58.196Z,99.99
2019-06-26T00:43:58.127Z,99.99
2019-06-26T00:44:58.093Z,99.99
2019-06-26T00:45:58.062Z,99.99
2019-06-26T00:46:58.053Z,99.99
2019-06-26T00:47:58.000Z,99.99
2019-06-26T00:48:57.987Z,99.99
2019-06-26T00:49:57.932Z,99.99
2019-06-26T00:50:57.901Z,99.99
2019-06-26T00:51:57.865Z,99.77
2019-06-26T00:52:57.827Z,99.99
2019-06-26T00:53:57.795Z,99.99
2019-06-26T00:54:57.773Z,99.39
2019-06-26T00:55:57.727Z,99.34
2019-06-26T00:56:57.697Z,99.99
2019-06-26T00:57:57.670Z,99.48
2019-06-26T00:58:57.634Z,99.87
2019-06-26T00:59:57.608Z,99.58
2019-06-26T01:00:57.653Z,99.99
2019-06-26T01:01:57.567Z,99.99
2019-06-26T01:02:57.507Z,99.99
2019-06-26T01:03:57.504Z,99.99
2019-06-26T01:04:57.552Z,99.99
2019-06-26T01:05:57.460Z,99.48
2019-06-26T01:06:57.387Z,99.99
2019-06-26T01:07:57.336Z,99.99
2019-06-26T01:08:57.335Z,99.99
2019-06-26T01:09:57.314Z,99.48
2019-06-26T01:10:57.278Z,99.19
2019-06-26T01:11:57.254Z,99.91
2019-06-26T01:12:57.177Z,99.99
2019-06-26T01:13:58.266Z,99.99
2019-06-26T01:14:57.109Z,99.99
2019-06-26T01:15:57.071Z,99.53
2019-06-26T01:16:57.036Z,99.99
2019-06-26T01:17:57.003Z,99.53
2019-06-26T01:18:56.968Z,99.15
2019-06-26T01:19:56.939Z,98.28
2019-06-26T01:20:56.902Z,98.19
2019-06-26T01:21:56.870Z,98.96
2019-06-26T01:22:56.841Z,97.80
2019-06-26T01:23:56.798Z,98.05
2019-06-26T01:24:56.782Z,98.00
2019-06-26T01:25:56.738Z,97.61
2019-06-26T01:26:56.697Z,97.80
2019-06-26T01:27:56.668Z,97.66
2019-06-26T01:28:56.636Z,98.38
2019-06-26T01:29:56.605Z,98.10
2019-06-26T01:30:56.613Z,97.80
2019-06-26T01:31:56.634Z,97.52
2019-06-26T01:32:56.539Z,97.52
2019-06-26T01:33:56.509Z,96.80
2019-06-26T01:34:56.497Z,97.04
2019-06-26T01:35:56.416Z,96.84
2019-06-26T01:36:56.392Z,97.61
2019-06-26T01:37:56.357Z,98.00
2019-06-26T01:38:56.311Z,97.42
2019-06-26T01:39:56.297Z,98.10
2019-06-26T01:40:56.273Z,97.61
2019-06-26T01:41:56.223Z,97.23
2019-06-26T01:42:56.198Z,97.23
2019-06-26T01:43:56.161Z,96.37
2019-06-26T01:44:56.130Z,97.04
2019-06-26T01:45:56.082Z,97.61
2019-06-26T01:46:56.036Z,97.90
2019-06-26T01:47:56.009Z,97.80
2019-06-26T01:48:55.971Z,96.84
2019-06-26T01:49:55.934Z,96.37
2019-06-26T01:50:55.904Z,95.98
2019-06-26T01:51:55.875Z,95.51
2019-06-26T01:52:55.841Z,95.65
2019-06-26T01:53:55.819Z,96.70
2019-06-26T01:54:55.773Z,96.84
2019-06-26T01:55:55.734Z,96.80
2019-06-26T01:56:55.731Z,97.04
2019-06-26T01:57:55.670Z,96.56
2019-06-26T01:58:55.689Z,97.33
2019-06-26T01:59:55.614Z,97.61
2019-06-26T02:00:55.568Z,97.33
2019-06-26T02:01:55.553Z,97.90
2019-06-26T02:02:55.530Z,96.66
2019-06-26T02:03:55.490Z,95.89
2019-06-26T02:04:55.450Z,95.89
2019-06-26T02:05:55.471Z,95.79
2019-06-26T02:06:55.420Z,95.79
2019-06-26T02:07:55.390Z,96.18
2019-06-26T02:08:55.310Z,97.14
2019-06-26T02:09:55.353Z,97.80
2019-06-26T02:10:55.272Z,97.42
2019-06-26T02:11:55.218Z,96.75
2019-06-26T02:12:55.200Z,96.37
2019-06-26T02:13:55.175Z,96.18
2019-06-26T02:14:55.130Z,96.18
2019-06-26T02:15:55.089Z,95.51
2019-06-26T02:16:55.053Z,94.84
2019-06-26T02:17:54.999Z,95.60
2019-06-26T02:18:54.961Z,96.18
2019-06-26T02:19:54.933Z,95.89
2019-06-26T02:20:54.911Z,95.70
2019-06-26T02:21:54.886Z,96.18
2019-06-26T02:22:54.838Z,96.08
2019-06-26T02:23:54.806Z,95.60
2019-06-26T02:24:54.780Z,95.41
2019-06-26T02:25:54.732Z,95.41
2019-06-26T02:26:54.702Z,95.03
2019-06-26T02:27:54.761Z,96.08
2019-06-26T02:28:54.636Z,95.12
2019-06-26T02:29:54.617Z,95.79
2019-06-26T02:30:54.562Z,95.41
2019-06-26T02:31:54.527Z,95.12
2019-06-26T02:32:54.542Z,95.12
2019-06-26T02:33:54.499Z,94.93
2019-06-26T02:34:54.461Z,95.31
2019-06-26T02:35:54.411Z,96.47
2019-06-26T02:36:54.376Z,96.08
2019-06-26T02:37:54.345Z,95.98
2019-06-26T02:38:54.344Z,95.70
2019-06-26T02:39:54.283Z,95.22
2019-06-26T02:40:54.289Z,95.22
2019-06-26T02:41:54.203Z,95.98
2019-06-26T02:42:54.201Z,95.31
2019-06-26T02:43:54.182Z,95.51
2019-06-26T02:44:54.727Z,94.84
2019-06-26T02:45:54.089Z,94.64
2019-06-26T02:46:54.057Z,94.64
2019-06-26T02:47:54.033Z,94.74
2019-06-26T02:48:53.961Z,95.03
2019-06-26T02:49:53.924Z,95.22
2019-06-26T02:50:53.888Z,95.22
2019-06-26T02:51:53.870Z,95.36
2019-06-26T02:52:53.824Z,95.36
2019-06-26T02:53:53.786Z,95.17
2019-06-26T02:54:53.752Z,94.64
2019-06-26T02:55:53.728Z,94.89
2019-06-26T02:56:53.696Z,94.79
2019-06-26T02:57:53.663Z,94.98
2019-06-26T02:58:53.627Z,94.79
2019-06-26T02:59:53.585Z,94.21
2019-06-26T03:00:53.560Z,94.69
2019-06-26T03:01:53.517Z,94.55
2019-06-26T03:02:53.490Z,94.31
2019-06-26T03:03:53.493Z,94.50
2019-06-26T03:04:53.435Z,95.07
2019-06-26T03:05:53.468Z,94.50
2019-06-26T03:06:53.349Z,93.88
2019-06-26T03:07:53.338Z,94.17
2019-06-26T03:08:53.338Z,94.64
2019-06-26T03:09:53.343Z,94.17
2019-06-26T03:10:53.268Z,94.17
2019-06-26T03:11:53.205Z,94.45
2019-06-26T03:12:53.231Z,94.35
2019-06-26T03:13:53.120Z,93.98
2019-06-26T03:15:07.855Z,94.26
2019-06-26T03:15:53.060Z,94.45
2019-06-26T03:16:53.040Z,94.07
2019-06-26T03:17:55.687Z,94.64
2019-06-26T03:18:52.976Z,95.51
2019-06-26T03:19:52.945Z,94.17
2019-06-26T03:20:52.909Z,94.45
2019-06-26T03:21:52.850Z,94.50
2019-06-26T03:22:52.818Z,95.17
2019-06-26T03:23:52.783Z,96.13
2019-06-26T03:24:52.771Z,96.22
2019-06-26T03:25:52.757Z,96.80
2019-06-26T03:26:52.709Z,97.80
2019-06-26T03:27:52.681Z,98.62
2019-06-26T03:28:52.641Z,97.66
2019-06-26T03:29:52.609Z,97.47
2019-06-26T03:30:52.557Z,97.09
2019-06-26T03:31:52.523Z,96.51
2019-06-26T03:32:52.477Z,96.70
2019-06-26T03:33:52.446Z,96.22
2019-06-26T03:34:52.419Z,96.99
2019-06-26T03:35:52.404Z,96.89
2019-06-26T03:36:52.384Z,96.99
2019-06-26T03:37:52.332Z,96.99
2019-06-26T03:38:52.325Z,97.66
2019-06-26T03:39:52.252Z,97.09
2019-06-26T03:40:52.288Z,96.99
2019-06-26T03:41:52.195Z,96.42
2019-06-26T03:42:52.151Z,97.09
2019-06-26T03:43:52.138Z,97.09
2019-06-26T03:44:52.104Z,97.28
2019-06-26T03:45:52.079Z,97.23
2019-06-26T03:46:52.066Z,97.09
2019-06-26T03:47:51.984Z,97.66
2019-06-26T03:48:52.012Z,97.95
2019-06-26T03:49:51.951Z,97.18
2019-06-26T03:50:51.880Z,96.37
2019-06-26T03:51:51.871Z,96.66
2019-06-26T03:52:51.851Z,96.18
2019-06-26T03:53:51.787Z,96.37
2019-06-26T03:54:51.767Z,96.37
2019-06-26T03:55:51.713Z,96.85
2019-06-26T03:56:51.677Z,96.89
2019-06-26T03:57:51.664Z,97.09
2019-06-26T03:58:51.620Z,96.70
2019-06-26T03:59:51.606Z,97.19
2019-06-26T04:00:51.555Z,97.19
2019-06-26T04:01:51.555Z,97.09
2019-06-26T04:02:51.487Z,97.28
2019-06-26T04:03:51.468Z,96.61
2019-06-26T04:04:51.436Z,96.42
2019-06-26T04:05:51.393Z,96.75
2019-06-26T04:06:51.366Z,96.75
2019-06-26T04:07:51.351Z,96.13
2019-06-26T04:08:51.328Z,96.94
2019-06-26T04:09:51.295Z,98.44
2019-06-26T04:10:51.272Z,99.99
2019-06-26T04:11:51.205Z,99.99
2019-06-26T04:12:51.183Z,99.99
2019-06-26T04:13:51.146Z,99.99
2019-06-26T04:14:51.124Z,99.99
2019-06-26T04:15:51.218Z,99.99
2019-06-26T04:16:51.045Z,99.99
2019-06-26T04:17:51.017Z,99.99
2019-06-26T04:18:51.011Z,99.99
2019-06-26T04:19:51.000Z,99.99
2019-06-26T04:20:50.928Z,99.99
2019-06-26T04:21:50.870Z,99.99
2019-06-26T04:22:50.861Z,99.99
2019-06-26T04:23:50.812Z,99.99
2019-06-26T04:24:50.797Z,99.99
2019-06-26T04:25:50.745Z,99.99
2019-06-26T04:26:50.710Z,99.99
2019-06-26T04:27:50.688Z,99.99
2019-06-26T04:28:50.688Z,99.99
2019-06-26T04:29:50.619Z,99.99
2019-06-26T04:30:50.625Z,99.99
2019-06-26T04:31:50.555Z,99.99
2019-06-26T04:32:50.582Z,99.99
2019-06-26T04:33:50.499Z,99.99
2019-06-26T04:34:50.465Z,99.99
2019-06-26T04:35:50.437Z,99.99
2019-06-26T04:36:50.407Z,99.99
2019-06-26T04:37:50.413Z,99.99
2019-06-26T04:38:50.433Z,99.99
2019-06-26T04:39:50.334Z,99.99
2019-06-26T04:40:50.355Z,99.99
2019-06-26T04:41:50.285Z,99.99
2019-06-26T04:42:50.257Z,99.99
2019-06-26T04:43:50.213Z,99.99
2019-06-26T04:44:50.201Z,99.99
2019-06-26T04:45:58.003Z,99.99
2019-06-26T04:46:50.177Z,99.99
2019-06-26T04:47:50.091Z,99.99
2019-06-26T04:48:50.127Z,99.99
2019-06-26T04:49:50.058Z,99.99
2019-06-26T04:50:50.039Z,99.99
2019-06-26T04:51:49.996Z,99.22
2019-06-26T04:52:49.989Z,97.47
2019-06-26T04:53:49.951Z,97.47
2019-06-26T04:54:49.897Z,95.63
2019-06-26T04:55:49.856Z,97.81
2019-06-26T04:56:49.840Z,95.24
2019-06-26T04:57:49.879Z,98.58
2019-06-26T04:58:49.782Z,98.49
2019-06-26T04:59:49.748Z,97.96
2019-06-26T05:00:49.749Z,94.75
2019-06-26T05:01:49.820Z,91.78
2019-06-26T05:02:49.726Z,91.94
2019-06-26T05:03:49.714Z,90.97
2019-06-26T05:04:49.617Z,90.48
2019-06-26T05:05:49.624Z,90.58
2019-06-26T05:06:49.560Z,91.16
2019-06-26T05:07:49.531Z,91.50
2019-06-26T05:08:49.541Z,94.12
2019-06-26T05:09:49.487Z,93.87
2019-06-26T05:10:49.488Z,89.40
2019-06-26T05:11:49.456Z,87.70
2019-06-26T05:12:49.411Z,87.46
2019-06-26T05:13:49.421Z,87.95
2019-06-26T05:14:49.388Z,86.63
2019-06-26T05:15:49.338Z,89.54
2019-06-26T05:16:49.350Z,88.81
2019-06-26T05:17:49.330Z,88.52
2019-06-26T05:18:49.265Z,86.52
2019-06-26T05:19:49.239Z,86.66
2019-06-26T05:20:49.267Z,83.83
2019-06-26T05:21:49.218Z,82.41
2019-06-26T05:22:49.180Z,81.59
2019-06-26T05:23:49.130Z,80.85
2019-06-26T05:24:49.107Z,83.00
2019-06-26T05:25:49.075Z,83.19
2019-06-26T05:26:49.064Z,80.36
2019-06-26T05:27:49.087Z,79.97
2019-06-26T05:28:49.015Z,83.39
2019-06-26T05:29:48.990Z,83.92
2019-06-26T05:30:48.954Z,80.80
2019-06-26T05:31:48.929Z,84.50
2019-06-26T05:32:48.907Z,81.62
2019-06-26T05:33:48.885Z,80.15
2019-06-26T05:34:48.912Z,78.89
2019-06-26T05:35:48.832Z,81.52
2019-06-26T05:36:48.817Z,78.85
2019-06-26T05:37:48.793Z,81.44
2019-06-26T05:38:48.760Z,82.51
2019-06-26T05:39:48.798Z,83.09
2019-06-26T05:40:48.743Z,82.76
2019-06-26T05:41:48.712Z,84.07
2019-06-26T05:42:48.711Z,84.94
2019-06-26T05:43:48.687Z,83.62
2019-06-26T05:44:48.668Z,83.09
2019-06-26T05:45:48.615Z,84.12
2019-06-26T05:46:48.601Z,87.45
2019-06-26T05:47:48.571Z,89.11
2019-06-26T05:48:48.660Z,93.63
2019-06-26T05:49:48.523Z,96.31
2019-06-26T05:50:49.441Z,99.75
2019-06-26T05:51:48.536Z,99.99
2019-06-26T05:52:48.445Z,99.99
2019-06-26T05:53:48.440Z,99.99
2019-06-26T05:54:48.438Z,99.99
2019-06-26T05:55:48.392Z,99.99
2019-06-26T05:56:48.363Z,99.99
2019-06-26T05:57:48.652Z,99.99
2019-06-26T05:58:48.294Z,99.99
2019-06-26T05:59:48.306Z,99.99
2019-06-26T06:00:48.269Z,99.99
2019-06-26T06:01:48.250Z,99.99
2019-06-26T06:02:48.203Z,99.99
2019-06-26T06:03:48.218Z,99.99
2019-06-26T06:04:48.150Z,99.99
2019-06-26T06:05:48.138Z,99.99
2019-06-26T06:06:48.122Z,99.99
2019-06-26T06:07:48.085Z,99.99
2019-06-26T06:08:48.060Z,99.99
2019-06-26T06:09:48.064Z,99.99
2019-06-26T06:10:48.023Z,99.99
2019-06-26T06:11:48.017Z,99.99
2019-06-26T06:12:47.976Z,99.99
2019-06-26T06:13:47.937Z,99.99
2019-06-26T06:14:47.927Z,99.99
2019-06-26T06:15:47.898Z,99.99
2019-06-26T06:16:48.191Z,99.99
2019-06-26T06:17:47.856Z,99.99
2019-06-26T06:18:47.817Z,99.99
2019-06-26T06:19:47.826Z,99.99
2019-06-26T06:20:47.818Z,99.99
2019-06-26T06:21:47.761Z,99.99
2019-06-26T06:22:47.759Z,97.81
2019-06-26T06:23:47.700Z,99.99
2019-06-26T06:24:47.679Z,99.99
2019-06-26T06:25:47.673Z,99.99
2019-06-26T06:26:47.618Z,99.99
2019-06-26T06:27:47.637Z,99.99
2019-06-26T06:28:47.594Z,99.99
2019-06-26T06:29:47.742Z,99.99
2019-06-26T06:30:47.535Z,99.99
2019-06-26T06:31:47.500Z,99.99
2019-06-26T06:32:47.510Z,99.99
2019-06-26T06:33:47.478Z,99.99
2019-06-26T06:34:47.502Z,99.99
2019-06-26T06:35:47.402Z,99.99
2019-06-26T06:36:47.389Z,99.99
2019-06-26T06:37:47.380Z,99.99
2019-06-26T06:38:47.348Z,99.99
2019-06-26T06:39:47.307Z,99.99
2019-06-26T06:40:47.302Z,99.99
2019-06-26T06:41:47.250Z,99.99
2019-06-26T06:42:47.236Z,99.99
2019-06-26T06:43:47.199Z,99.99
2019-06-26T06:44:47.277Z,99.99
2019-06-26T06:45:47.292Z,99.99
2019-06-26T06:47:02.424Z,99.99
2019-06-26T06:47:47.135Z,99.99
2019-06-26T06:48:47.109Z,99.99
2019-06-26T06:49:47.097Z,99.99
2019-06-26T06:50:47.073Z,99.99
2019-06-26T06:51:47.051Z,99.99
2019-06-26T06:52:47.050Z,99.99
2019-06-26T06:53:47.010Z,99.99
2019-06-26T06:54:46.965Z,99.99
2019-06-26T06:55:46.943Z,99.99
2019-06-26T06:56:46.912Z,99.99
2019-06-26T06:57:46.907Z,99.99
2019-06-26T06:58:46.868Z,99.66
2019-06-26T06:59:46.845Z,98.39
2019-06-26T07:00:46.832Z,95.26
2019-06-26T07:01:46.771Z,93.89
2019-06-26T07:02:46.772Z,86.98
2019-06-26T07:03:46.733Z,79.23
2019-06-26T07:04:46.734Z,76.56
2019-06-26T07:05:46.686Z,71.24
2019-06-26T07:06:46.667Z,69.60
2019-06-26T07:07:46.630Z,71.90
2019-06-26T07:08:46.621Z,69.60
2019-06-26T07:09:46.601Z,67.61
2019-06-26T07:10:46.574Z,66.43
2019-06-26T07:11:46.564Z,66.40
2019-06-26T07:12:46.530Z,62.88
2019-06-26T07:13:46.515Z,62.65
2019-06-26T07:14:46.504Z,59.75
2019-06-26T07:15:46.475Z,59.85
2019-06-26T07:16:46.516Z,60.15
2019-06-26T07:17:46.451Z,58.12
2019-06-26T07:18:46.416Z,58.25
2019-06-26T07:19:46.399Z,59.99
2019-06-26T07:20:46.410Z,64.49
2019-06-26T07:21:46.373Z,61.34
2019-06-26T07:22:46.322Z,62.33
2019-06-26T07:23:46.336Z,61.31
2019-06-26T07:24:46.411Z,61.51
2019-06-26T07:25:46.317Z,62.96
2019-06-26T07:26:46.292Z,62.79
2019-06-26T07:27:46.259Z,61.54
2019-06-26T07:28:46.241Z,61.64
2019-06-26T07:29:46.243Z,61.08
2019-06-26T07:30:46.180Z,59.75
2019-06-26T07:31:46.218Z,59.00
2019-06-26T07:32:46.197Z,57.67
2019-06-26T07:33:46.129Z,61.68
2019-06-26T07:34:46.121Z,55.94
2019-06-26T07:35:46.093Z,56.65
2019-06-26T07:36:46.073Z,57.91
2019-06-26T07:37:46.068Z,58.45
2019-06-26T07:38:46.061Z,56.27
2019-06-26T07:39:46.040Z,56.67
2019-06-26T07:40:46.019Z,58.09
2019-06-26T07:41:46.001Z,58.19
2019-06-26T07:42:45.976Z,56.71
2019-06-26T07:43:45.982Z,59.86
2019-06-26T07:44:45.949Z,59.11
2019-06-26T07:45:45.930Z,57.14
2019-06-26T07:46:46.412Z,58.26
2019-06-26T07:48:22.488Z,56.94
2019-06-26T07:48:45.909Z,55.49
2019-06-26T07:49:45.915Z,55.32
2019-06-26T07:50:45.863Z,55.51
2019-06-26T07:51:45.893Z,56.04
2019-06-26T07:52:45.889Z,55.74
2019-06-26T07:53:45.821Z,58.53
2019-06-26T07:54:45.866Z,54.78
2019-06-26T07:55:45.803Z,52.95
2019-06-26T07:56:45.801Z,54.44
2019-06-26T07:57:45.746Z,53.57
2019-06-26T07:58:45.744Z,52.46
2019-06-26T07:59:45.771Z,52.78
2019-06-26T08:00:45.752Z,53.45
2019-06-26T08:01:45.698Z,53.34
2019-06-26T08:02:45.662Z,54.43
2019-06-26T08:03:45.661Z,56.82
2019-06-26T08:04:45.627Z,55.27
2019-06-26T08:05:45.613Z,57.13
2019-06-26T08:06:45.599Z,54.34
2019-06-26T08:07:45.600Z,53.45
2019-06-26T08:08:45.580Z,52.61
2019-06-26T08:09:45.561Z,54.93
2019-06-26T08:10:45.641Z,53.39
2019-06-26T08:11:45.520Z,54.28
2019-06-26T08:12:45.604Z,54.16
2019-06-26T08:13:45.549Z,53.08
2019-06-26T08:14:45.493Z,55.35
2019-06-26T08:15:45.460Z,55.15
2019-06-26T08:16:45.454Z,55.35
2019-06-26T08:17:59.229Z,52.63
2019-06-26T08:18:45.421Z,53.00
2019-06-26T08:19:45.410Z,53.39
2019-06-26T08:21:00.474Z,54.48
2019-06-26T08:21:46.738Z,52.63
2019-06-26T08:22:45.374Z,53.42
2019-06-26T08:23:45.348Z,52.24
2019-06-26T08:24:45.371Z,53.75
2019-06-26T08:25:45.336Z,53.94
2019-06-26T08:26:45.312Z,55.40
2019-06-26T08:27:45.290Z,54.44
2019-06-26T08:28:45.285Z,54.41
2019-06-26T08:29:45.308Z,53.64
2019-06-26T08:30:45.295Z,54.88
2019-06-26T08:31:45.262Z,55.77
2019-06-26T08:32:45.911Z,53.81
2019-06-26T08:33:45.255Z,52.36
2019-06-26T08:34:45.261Z,52.24
2019-06-26T08:35:45.234Z,52.86
2019-06-26T08:36:45.185Z,53.72
2019-06-26T08:37:45.197Z,54.41
2019-06-26T08:38:45.142Z,53.45
2019-06-26T08:39:45.129Z,55.62
2019-06-26T08:40:45.115Z,52.88
2019-06-26T08:41:45.081Z,52.69
2019-06-26T08:42:45.063Z,53.67
2019-06-26T08:43:45.044Z,53.42
2019-06-26T08:44:45.082Z,53.42
2019-06-26T08:45:45.018Z,54.61
2019-06-26T08:46:45.015Z,56.04
2019-06-26T08:47:45.037Z,53.50
2019-06-26T08:48:45.018Z,52.71
2019-06-26T08:49:45.011Z,52.54
2019-06-26T08:50:44.952Z,52.39
2019-06-26T08:51:44.948Z,53.25
2019-06-26T08:52:44.919Z,52.70
2019-06-26T08:53:44.912Z,54.71
2019-06-26T08:54:44.898Z,53.64
2019-06-26T08:55:44.907Z,51.87
2019-06-26T08:56:44.920Z,52.17
2019-06-26T08:57:44.864Z,51.59
2019-06-26T08:58:44.902Z,51.13
2019-06-26T08:59:44.842Z,51.89
2019-06-26T09:00:44.847Z,52.36
2019-06-26T09:01:44.850Z,50.34
2019-06-26T09:02:44.813Z,47.39
2019-06-26T09:03:44.803Z,46.12
2019-06-26T09:04:44.806Z,47.69
2019-06-26T09:05:48.569Z,47.83
2019-06-26T09:06:44.767Z,50.38
2019-06-26T09:07:44.756Z,48.33
2019-06-26T09:08:44.688Z,49.91
2019-06-26T09:09:44.821Z,47.83
2019-06-26T09:10:45.272Z,47.38
2019-06-26T09:11:44.643Z,47.38
2019-06-26T09:12:44.651Z,47.41
2019-06-26T09:13:44.648Z,46.77
2019-06-26T09:14:44.606Z,45.90
2019-06-26T09:15:44.593Z,47.49
2019-06-26T09:16:44.607Z,49.66
2019-06-26T09:17:44.555Z,46.69
2019-06-26T09:18:44.544Z,47.06
2019-06-26T09:19:44.538Z,47.24
2019-06-26T09:20:44.580Z,44.94
2019-06-26T09:21:44.506Z,47.74
2019-06-26T09:22:44.538Z,49.25
2019-06-26T09:23:44.562Z,49.57
2019-06-26T09:24:44.480Z,47.41
2019-06-26T09:25:44.442Z,47.44
2019-06-26T09:26:44.480Z,47.56
2019-06-26T09:27:44.418Z,49.94
2019-06-26T09:28:44.400Z,46.98
2019-06-26T09:29:44.425Z,47.22
2019-06-26T09:30:44.391Z,48.13
2019-06-26T09:31:44.380Z,48.25
2019-06-26T09:32:44.336Z,46.45
2019-06-26T09:33:44.343Z,47.41
2019-06-26T09:34:44.319Z,46.60
2019-06-26T09:35:44.305Z,48.80
2019-06-26T09:36:44.276Z,44.84
2019-06-26T09:37:44.281Z,48.35
2019-06-26T09:38:44.285Z,48.08
2019-06-26T09:39:44.260Z,47.61
2019-06-26T09:40:44.271Z,45.23
2019-06-26T09:41:44.240Z,45.70
2019-06-26T09:42:44.218Z,45.48
2019-06-26T09:43:44.180Z,45.08
2019-06-26T09:44:44.187Z,44.17
2019-06-26T09:45:44.166Z,44.35
2019-06-26T09:46:44.148Z,46.45
2019-06-26T09:47:44.120Z,45.06
2019-06-26T09:48:52.894Z,45.85
2019-06-26T09:49:44.103Z,45.97
2019-06-26T09:50:44.102Z,45.93
2019-06-26T09:51:44.063Z,46.23
2019-06-26T09:52:44.936Z,46.11
2019-06-26T09:53:47.736Z,48.08
2019-06-26T09:54:44.033Z,47.19
2019-06-26T09:55:44.036Z,43.87
2019-06-26T09:56:44.031Z,44.78
2019-06-26T09:57:43.982Z,46.86
2019-06-26T09:58:44.074Z,45.28
2019-06-26T09:59:43.962Z,44.81
2019-06-26T10:00:43.937Z,44.75
2019-06-26T10:01:43.932Z,45.86
2019-06-26T10:02:43.953Z,44.95
2019-06-26T10:03:45.300Z,46.44
2019-06-26T10:04:43.899Z,46.34
2019-06-26T10:05:43.860Z,41.73
2019-06-26T10:06:43.879Z,41.44
2019-06-26T10:07:43.842Z,40.84
2019-06-26T10:08:43.840Z,40.42
2019-06-26T10:09:43.821Z,42.78
2019-06-26T10:10:43.877Z,41.39
2019-06-26T10:11:43.809Z,41.12
2019-06-26T10:12:43.799Z,42.92
2019-06-26T10:13:43.744Z,41.47
2019-06-26T10:14:47.707Z,42.66
2019-06-26T10:15:43.713Z,42.76
2019-06-26T10:16:43.696Z,42.88
2019-06-26T10:17:43.686Z,43.99
2019-06-26T10:18:43.672Z,42.60
2019-06-26T10:19:43.653Z,42.88
2019-06-26T10:20:43.640Z,42.71
2019-06-26T10:21:43.625Z,44.29
2019-06-26T10:22:43.602Z,42.90
2019-06-26T10:23:43.590Z,43.06
2019-06-26T10:24:43.588Z,43.06
2019-06-26T10:25:43.556Z,42.84
2019-06-26T10:26:43.545Z,42.54
2019-06-26T10:27:43.559Z,42.66
2019-06-26T10:28:43.534Z,42.57
2019-06-26T10:29:43.512Z,41.95
2019-06-26T10:30:43.507Z,42.72
2019-06-26T10:31:43.481Z,42.70
2019-06-26T10:32:43.535Z,42.70
2019-06-26T10:33:43.472Z,44.18
2019-06-26T10:34:43.425Z,44.20
2019-06-26T10:35:43.553Z,45.00
2019-06-26T10:36:43.666Z,42.64
2019-06-26T10:37:43.396Z,44.02
2019-06-26T10:38:43.367Z,42.76
2019-06-26T10:39:43.363Z,43.38
2019-06-26T10:40:43.332Z,43.18
2019-06-26T10:41:43.327Z,42.71
2019-06-26T10:42:43.335Z,43.40
2019-06-26T10:43:43.298Z,41.71
2019-06-26T10:44:43.281Z,41.91
2019-06-26T10:45:43.356Z,42.19
2019-06-26T10:46:43.278Z,42.86
2019-06-26T10:47:43.346Z,44.15
2019-06-26T10:48:43.215Z,44.94
2019-06-26T10:49:43.188Z,42.96
2019-06-26T10:50:51.019Z,45.34
2019-06-26T10:51:43.153Z,44.15
2019-06-26T10:52:43.164Z,42.72
2019-06-26T10:53:43.143Z,42.92
2019-06-26T10:54:44.526Z,44.18
2019-06-26T10:55:43.096Z,43.91
2019-06-26T10:56:43.078Z,43.21
2019-06-26T10:57:43.062Z,44.20
2019-06-26T10:58:43.045Z,44.01
2019-06-26T10:59:43.106Z,43.61
2019-06-26T11:00:43.035Z,43.80
2019-06-26T11:01:43.025Z,44.32
2019-06-26T11:02:43.012Z,45.51
2019-06-26T11:03:42.986Z,44.32
2019-06-26T11:04:42.987Z,44.13
2019-06-26T11:05:42.975Z,43.91
2019-06-26T11:06:42.920Z,44.01
2019-06-26T11:07:43.029Z,43.29
2019-06-26T11:08:42.915Z,43.10
2019-06-26T11:09:42.884Z,45.09
2019-06-26T11:10:42.886Z,45.07
2019-06-26T11:11:42.880Z,43.41
2019-06-26T11:12:42.835Z,42.84
2019-06-26T11:13:42.852Z,43.93
2019-06-26T11:14:42.784Z,42.44
2019-06-26T11:15:42.817Z,43.35
2019-06-26T11:16:42.824Z,44.05
2019-06-26T11:17:42.758Z,43.97
2019-06-26T11:18:42.735Z,43.40
2019-06-26T11:19:44.485Z,43.97
2019-06-26T11:20:42.700Z,44.19
2019-06-26T11:21:42.685Z,42.60
2019-06-26T11:22:42.681Z,41.69
2019-06-26T11:23:42.655Z,41.10
2019-06-26T11:24:42.685Z,42.49
2019-06-26T11:25:44.467Z,42.90
2019-06-26T11:26:42.610Z,44.29
2019-06-26T11:27:42.587Z,42.78
2019-06-26T11:28:42.572Z,44.37
2019-06-26T11:29:42.569Z,43.26
2019-06-26T11:30:42.549Z,42.86
2019-06-26T11:31:42.525Z,42.76
2019-06-26T11:32:42.520Z,42.54
2019-06-26T11:33:42.514Z,42.72
2019-06-26T11:34:42.487Z,44.82
2019-06-26T11:35:42.488Z,45.51
2019-06-26T11:36:42.487Z,43.80
2019-06-26T11:37:42.481Z,44.01
2019-06-26T11:38:42.503Z,47.27
2019-06-26T11:39:42.403Z,43.98
2019-06-26T11:40:42.417Z,45.79
2019-06-26T11:41:42.407Z,45.00
2019-06-26T11:42:42.437Z,43.83
2019-06-26T11:43:42.354Z,44.05
2019-06-26T11:44:42.333Z,44.23
2019-06-26T11:45:42.313Z,42.86
2019-06-26T11:46:42.294Z,44.13
2019-06-26T11:47:45.521Z,42.84
2019-06-26T11:48:42.260Z,44.02
2019-06-26T11:49:42.245Z,46.72
2019-06-26T11:50:42.217Z,44.13
2019-06-26T11:51:42.193Z,44.31
2019-06-26T11:52:42.189Z,44.13
2019-06-26T11:53:42.172Z,45.61
2019-06-26T11:54:42.209Z,45.51
2019-06-26T11:55:42.136Z,45.12
2019-06-26T11:56:42.119Z,44.31
2019-06-26T11:57:42.104Z,44.80
2019-06-26T11:58:42.125Z,42.80
2019-06-26T11:59:42.076Z,43.10
2019-06-26T12:00:42.098Z,43.10
2019-06-26T12:01:42.059Z,45.07
2019-06-26T12:02:42.030Z,44.78
2019-06-26T12:03:42.021Z,42.99
2019-06-26T12:04:42.011Z,44.48
2019-06-26T12:05:42.048Z,44.68
2019-06-26T12:06:45.702Z,45.96
2019-06-26T12:07:41.961Z,45.96
2019-06-26T12:08:41.964Z,45.76
2019-06-26T12:09:42.000Z,47.78
2019-06-26T12:10:41.892Z,50.09
2019-06-26T12:11:41.893Z,44.45
2019-06-26T12:12:41.878Z,44.45
2019-06-26T12:13:41.920Z,43.21
2019-06-26T12:14:41.946Z,44.87
2019-06-26T12:15:56.615Z,45.67
2019-06-26T12:16:41.805Z,45.86
2019-06-26T12:17:41.790Z,47.34
2019-06-26T12:19:19.867Z,46.38
2019-06-26T12:19:41.833Z,45.27
2019-06-26T12:20:41.783Z,45.67
2019-06-26T12:21:41.734Z,45.96
2019-06-26T12:22:41.732Z,45.00
2019-06-26T12:23:41.754Z,47.99
2019-06-26T12:24:41.688Z,42.96
2019-06-26T12:25:41.675Z,43.88
2019-06-26T12:26:41.648Z,44.70
2019-06-26T12:27:41.666Z,45.89
2019-06-26T12:28:41.634Z,43.43
2019-06-26T12:29:41.622Z,46.03
2019-06-26T12:30:41.613Z,45.23
2019-06-26T12:31:41.583Z,45.73
2019-06-26T12:32:44.236Z,44.37
2019-06-26T12:33:41.571Z,44.84
2019-06-26T12:34:44.918Z,45.00
2019-06-26T12:35:41.534Z,44.92
2019-06-26T12:36:41.650Z,45.90
2019-06-26T12:37:41.575Z,45.01
2019-06-26T12:38:41.496Z,44.92
2019-06-26T12:39:41.535Z,45.01
2019-06-26T12:40:41.450Z,46.58
2019-06-26T12:41:41.467Z,46.83
2019-06-26T12:42:41.415Z,47.72
2019-06-26T12:43:41.401Z,46.81
2019-06-26T12:44:41.392Z,49.20
2019-06-26T12:45:41.373Z,47.91
2019-06-26T12:46:41.371Z,47.62
2019-06-26T12:47:41.349Z,47.52
2019-06-26T12:48:41.334Z,49.20
2019-06-26T12:49:41.338Z,49.52
2019-06-26T12:50:41.281Z,50.43
2019-06-26T12:51:41.317Z,48.77
2019-06-26T12:52:41.281Z,47.49